Shelburn, Indiana
Current Conditions -  °F | °C
As of 5:15 AM on Monday 26 Jan 2015 (Local Time) from KRSV Reporting Station
Overcast Overcast  
Wind Chill: 20°   Ceiling: 1600
Heat Index: 29°   Visibility: 10mi
Dew Point: 25°   Wind: 9mph
Humidity: 86%   Direction: 350°N
Pressure: 29.97"   Gusts: NA
Location:  39.18°N, 87.39°W
Report Text: KRSV 261015Z AUTO 35008KT 10SM OVC016 M02/M04 A2997 RMK AO2 T10171038
Loading
Personal Weather Stations






























Interactive Weather Map New forecast layout! Learn more

10-Day Weather Forecast

Advertisements
Track Severe Weather on mobile